sensor_id;sensor_type;location;lat;lon;timestamp;temperature;humidity
20698;DHT22;10508;50.956;4.640;2023-01-30T00:00:22;5.80;99.90
20698;DHT22;10508;50.956;4.640;2023-01-30T00:02:48;5.90;99.90
20698;DHT22;10508;50.956;4.640;2023-01-30T00:05:14;5.70;99.90
20698;DHT22;10508;50.956;4.640;2023-01-30T00:07:39;5.70;99.90
20698;DHT22;10508;50.956;4.640;2023-01-30T00:10:05;5.70;99.90
20698;DHT22;10508;50.956;4.640;2023-01-30T00:12:31;5.80;99.90
20698;DHT22;10508;50.956;4.640;2023-01-30T00:14:56;5.70;99.90
20698;DHT22;10508;50.956;4.640;2023-01-30T00:17:22;5.70;99.90
20698;DHT22;10508;50.956;4.640;2023-01-30T00:19:47;5.80;99.90
20698;DHT22;10508;50.956;4.640;2023-01-30T00:22:13;5.80;99.90
20698;DHT22;10508;50.956;4.640;2023-01-30T00:24:39;5.60;99.90
20698;DHT22;10508;50.956;4.640;2023-01-30T00:27:04;5.60;99.90
20698;DHT22;10508;50.956;4.640;2023-01-30T00:29:30;5.80;99.90
20698;DHT22;10508;50.956;4.640;2023-01-30T00:32:01;5.80;99.90
20698;DHT22;10508;50.956;4.640;2023-01-30T00:34:26;5.80;99.90
20698;DHT22;10508;50.956;4.640;2023-01-30T00:36:52;5.90;99.90
20698;DHT22;10508;50.956;4.640;2023-01-30T00:39:17;5.80;99.90
20698;DHT22;10508;50.956;4.640;2023-01-30T00:41:43;5.80;99.90
20698;DHT22;10508;50.956;4.640;2023-01-30T00:44:27;5.80;99.90
20698;DHT22;10508;50.956;4.640;2023-01-30T00:47:11;5.80;99.90
20698;DHT22;10508;50.956;4.640;2023-01-30T00:49:37;5.80;99.90
20698;DHT22;10508;50.956;4.640;2023-01-30T00:52:03;5.80;99.90
20698;DHT22;10508;50.956;4.640;2023-01-30T00:54:29;5.80;99.90
20698;DHT22;10508;50.956;4.640;2023-01-30T00:56:55;5.70;99.90
20698;DHT22;10508;50.956;4.640;2023-01-30T00:59:20;5.70;99.90
20698;DHT22;10508;50.956;4.640;2023-01-30T01:01:46;5.70;99.90
20698;DHT22;10508;50.956;4.640;2023-01-30T01:04:12;6.00;99.90
20698;DHT22;10508;50.956;4.640;2023-01-30T01:06:38;5.70;99.90
20698;DHT22;10508;50.956;4.640;2023-01-30T01:09:04;5.70;99.90
20698;DHT22;10508;50.956;4.640;2023-01-30T01:11:30;5.80;99.90
20698;DHT22;10508;50.956;4.640;2023-01-30T01:13:58;5.80;99.90
20698;DHT22;10508;50.956;4.640;2023-01-30T01:16:24;5.80;99.90
20698;DHT22;10508;50.956;4.640;2023-01-30T01:18:51;5.80;99.90
20698;DHT22;10508;50.956;4.640;2023-01-30T01:21:16;5.80;99.90
20698;DHT22;10508;50.956;4.640;2023-01-30T01:23:43;5.90;99.90
20698;DHT22;10508;50.956;4.640;2023-01-30T01:26:09;5.90;99.90
20698;DHT22;10508;50.956;4.640;2023-01-30T01:28:35;5.90;99.90
20698;DHT22;10508;50.956;4.640;2023-01-30T01:31:07;5.90;99.90
20698;DHT22;10508;50.956;4.640;2023-01-30T01:33:32;5.90;99.90
20698;DHT22;10508;50.956;4.640;2023-01-30T01:35:58;5.90;99.90
20698;DHT22;10508;50.956;4.640;2023-01-30T01:38:23;6.00;99.90
20698;DHT22;10508;50.956;4.640;2023-01-30T01:40:49;5.90;99.90
20698;DHT22;10508;50.956;4.640;2023-01-30T01:43:29;6.00;99.90
20698;DHT22;10508;50.956;4.640;2023-01-30T01:46:09;5.80;99.90
20698;DHT22;10508;50.956;4.640;2023-01-30T01:48:45;5.90;99.90
20698;DHT22;10508;50.956;4.640;2023-01-30T01:51:37;6.00;99.90
20698;DHT22;10508;50.956;4.640;2023-01-30T01:56:32;6.00;99.90
20698;DHT22;10508;50.956;4.640;2023-01-30T01:59:09;6.00;99.90
20698;DHT22;10508;50.956;4.640;2023-01-30T02:01:36;6.00;99.90
20698;DHT22;10508;50.956;4.640;2023-01-30T02:04:03;6.00;99.90
20698;DHT22;10508;50.956;4.640;2023-01-30T02:06:31;6.10;99.90
20698;DHT22;10508;50.956;4.640;2023-01-30T02:09:00;6.20;99.90
20698;DHT22;10508;50.956;4.640;2023-01-30T02:11:46;6.10;99.90
20698;DHT22;10508;50.956;4.640;2023-01-30T02:14:15;6.10;99.90
20698;DHT22;10508;50.956;4.640;2023-01-30T02:16:43;6.20;99.90
20698;DHT22;10508;50.956;4.640;2023-01-30T02:22:28;6.20;99.90
20698;DHT22;10508;50.956;4.640;2023-01-30T02:31:25;6.20;99.90
20698;DHT22;10508;50.956;4.640;2023-01-30T02:45:29;6.20;99.90
20698;DHT22;10508;50.956;4.640;2023-01-30T02:48:00;6.30;99.90
20698;DHT22;10508;50.956;4.640;2023-01-30T02:52:56;6.30;99.90
20698;DHT22;10508;50.956;4.640;2023-01-30T02:55:27;6.30;99.90
20698;DHT22;10508;50.956;4.640;2023-01-30T02:57:54;6.30;99.90
20698;DHT22;10508;50.956;4.640;2023-01-30T03:03:28;6.40;99.90
20698;DHT22;10508;50.956;4.640;2023-01-30T03:09:13;6.30;99.90
20698;DHT22;10508;50.956;4.640;2023-01-30T03:12:10;6.40;99.90
20698;DHT22;10508;50.956;4.640;2023-01-30T03:15:02;6.40;99.90
20698;DHT22;10508;50.956;4.640;2023-01-30T03:17:30;6.40;99.90
20698;DHT22;10508;50.956;4.640;2023-01-30T03:19:57;6.40;99.90
20698;DHT22;10508;50.956;4.640;2023-01-30T03:22:23;6.60;99.90
20698;DHT22;10508;50.956;4.640;2023-01-30T03:24:50;6.50;99.90
20698;DHT22;10508;50.956;4.640;2023-01-30T03:27:17;6.50;99.90
20698;DHT22;10508;50.956;4.640;2023-01-30T03:29:43;6.50;99.90
20698;DHT22;10508;50.956;4.640;2023-01-30T03:32:09;6.50;99.90
20698;DHT22;10508;50.956;4.640;2023-01-30T03:34:35;6.60;99.90
20698;DHT22;10508;50.956;4.640;2023-01-30T03:37:01;6.60;99.90
20698;DHT22;10508;50.956;4.640;2023-01-30T03:39:26;6.60;99.90
20698;DHT22;10508;50.956;4.640;2023-01-30T03:41:53;6.60;99.90
20698;DHT22;10508;50.956;4.640;2023-01-30T03:44:18;6.60;99.90
20698;DHT22;10508;50.956;4.640;2023-01-30T03:46:44;6.60;99.90
20698;DHT22;10508;50.956;4.640;2023-01-30T03:49:10;6.60;99.90
20698;DHT22;10508;50.956;4.640;2023-01-30T03:51:35;6.70;99.90
20698;DHT22;10508;50.956;4.640;2023-01-30T03:54:01;6.70;99.90
20698;DHT22;10508;50.956;4.640;2023-01-30T03:56:27;6.60;99.90
20698;DHT22;10508;50.956;4.640;2023-01-30T03:58:52;6.70;99.90
20698;DHT22;10508;50.956;4.640;2023-01-30T04:01:18;6.70;99.90
20698;DHT22;10508;50.956;4.640;2023-01-30T04:03:43;6.70;99.90
20698;DHT22;10508;50.956;4.640;2023-01-30T04:06:09;6.70;99.90
20698;DHT22;10508;50.956;4.640;2023-01-30T04:08:35;6.60;99.90
20698;DHT22;10508;50.956;4.640;2023-01-30T04:11:00;6.70;99.90
20698;DHT22;10508;50.956;4.640;2023-01-30T04:13:26;6.70;99.90
20698;DHT22;10508;50.956;4.640;2023-01-30T04:15:51;6.60;99.90
20698;DHT22;10508;50.956;4.640;2023-01-30T04:18:17;6.70;99.90
20698;DHT22;10508;50.956;4.640;2023-01-30T04:20:43;6.50;99.90
20698;DHT22;10508;50.956;4.640;2023-01-30T04:23:09;6.70;99.90
20698;DHT22;10508;50.956;4.640;2023-01-30T04:25:35;6.60;99.90
20698;DHT22;10508;50.956;4.640;2023-01-30T04:28:00;6.60;99.90
20698;DHT22;10508;50.956;4.640;2023-01-30T04:30:26;6.60;99.90
20698;DHT22;10508;50.956;4.640;2023-01-30T04:32:52;6.70;99.90
20698;DHT22;10508;50.956;4.640;2023-01-30T04:35:17;6.70;99.90
20698;DHT22;10508;50.956;4.640;2023-01-30T04:37:43;6.60;99.90
20698;DHT22;10508;50.956;4.640;2023-01-30T04:40:09;6.60;99.90
20698;DHT22;10508;50.956;4.640;2023-01-30T04:42:35;6.60;99.90
20698;DHT22;10508;50.956;4.640;2023-01-30T04:45:01;6.70;99.90
20698;DHT22;10508;50.956;4.640;2023-01-30T04:47:26;6.70;99.90
20698;DHT22;10508;50.956;4.640;2023-01-30T04:49:52;6.70;99.90
20698;DHT22;10508;50.956;4.640;2023-01-30T04:52:18;6.70;99.90
20698;DHT22;10508;50.956;4.640;2023-01-30T04:54:43;6.70;99.90
20698;DHT22;10508;50.956;4.640;2023-01-30T04:57:09;6.70;99.90
20698;DHT22;10508;50.956;4.640;2023-01-30T04:59:34;6.70;99.90
20698;DHT22;10508;50.956;4.640;2023-01-30T05:02:00;6.70;99.90
20698;DHT22;10508;50.956;4.640;2023-01-30T05:04:25;6.70;99.90
20698;DHT22;10508;50.956;4.640;2023-01-30T05:06:51;6.70;99.90
20698;DHT22;10508;50.956;4.640;2023-01-30T05:09:17;6.70;99.90
20698;DHT22;10508;50.956;4.640;2023-01-30T05:11:42;6.80;99.90
20698;DHT22;10508;50.956;4.640;2023-01-30T05:14:08;6.90;99.90
20698;DHT22;10508;50.956;4.640;2023-01-30T05:16:33;6.80;99.90
20698;DHT22;10508;50.956;4.640;2023-01-30T05:18:59;6.90;99.90
20698;DHT22;10508;50.956;4.640;2023-01-30T05:21:26;6.80;99.90
20698;DHT22;10508;50.956;4.640;2023-01-30T05:23:53;6.80;99.90
20698;DHT22;10508;50.956;4.640;2023-01-30T05:26:20;6.80;99.90
20698;DHT22;10508;50.956;4.640;2023-01-30T05:28:54;6.80;99.90
20698;DHT22;10508;50.956;4.640;2023-01-30T05:31:20;6.90;99.90
20698;DHT22;10508;50.956;4.640;2023-01-30T05:33:48;6.80;99.90
20698;DHT22;10508;50.956;4.640;2023-01-30T05:36:15;6.90;99.90
20698;DHT22;10508;50.956;4.640;2023-01-30T05:38:42;6.90;99.90
20698;DHT22;10508;50.956;4.640;2023-01-30T05:41:09;6.90;99.90
20698;DHT22;10508;50.956;4.640;2023-01-30T05:43:35;6.90;99.90
20698;DHT22;10508;50.956;4.640;2023-01-30T05:46:02;7.10;99.90
20698;DHT22;10508;50.956;4.640;2023-01-30T05:48:29;6.90;99.90
20698;DHT22;10508;50.956;4.640;2023-01-30T05:50:56;7.20;99.90
20698;DHT22;10508;50.956;4.640;2023-01-30T05:53:25;7.30;99.90
20698;DHT22;10508;50.956;4.640;2023-01-30T05:55:59;7.00;99.90
20698;DHT22;10508;50.956;4.640;2023-01-30T05:58:25;7.10;99.90
20698;DHT22;10508;50.956;4.640;2023-01-30T06:00:51;7.00;99.90
20698;DHT22;10508;50.956;4.640;2023-01-30T06:03:17;7.20;99.90
20698;DHT22;10508;50.956;4.640;2023-01-30T06:05:43;7.00;99.90
20698;DHT22;10508;50.956;4.640;2023-01-30T06:08:08;6.90;99.90
20698;DHT22;10508;50.956;4.640;2023-01-30T06:10:35;7.10;99.90
20698;DHT22;10508;50.956;4.640;2023-01-30T06:13:00;7.20;99.90
20698;DHT22;10508;50.956;4.640;2023-01-30T06:15:26;7.10;99.90
20698;DHT22;10508;50.956;4.640;2023-01-30T06:17:52;7.10;99.90
20698;DHT22;10508;50.956;4.640;2023-01-30T06:20:17;7.20;99.90
20698;DHT22;10508;50.956;4.640;2023-01-30T06:22:43;7.10;99.90
20698;DHT22;10508;50.956;4.640;2023-01-30T06:25:09;7.20;99.90
20698;DHT22;10508;50.956;4.640;2023-01-30T06:27:35;7.30;99.90
20698;DHT22;10508;50.956;4.640;2023-01-30T06:30:00;7.20;99.90
20698;DHT22;10508;50.956;4.640;2023-01-30T06:32:26;7.20;99.90
20698;DHT22;10508;50.956;4.640;2023-01-30T06:34:52;7.20;99.90
20698;DHT22;10508;50.956;4.640;2023-01-30T06:37:17;7.30;99.90
20698;DHT22;10508;50.956;4.640;2023-01-30T06:39:43;7.20;99.90
20698;DHT22;10508;50.956;4.640;2023-01-30T06:42:08;7.30;99.90
20698;DHT22;10508;50.956;4.640;2023-01-30T06:44:34;7.20;99.90
20698;DHT22;10508;50.956;4.640;2023-01-30T06:46:59;7.30;99.90
20698;DHT22;10508;50.956;4.640;2023-01-30T06:49:25;7.20;99.90
20698;DHT22;10508;50.956;4.640;2023-01-30T06:51:51;7.00;99.90
20698;DHT22;10508;50.956;4.640;2023-01-30T06:54:16;7.30;99.90
20698;DHT22;10508;50.956;4.640;2023-01-30T06:56:42;7.30;99.90
20698;DHT22;10508;50.956;4.640;2023-01-30T06:59:07;7.20;99.90
20698;DHT22;10508;50.956;4.640;2023-01-30T07:01:33;7.20;99.90
20698;DHT22;10508;50.956;4.640;2023-01-30T07:03:59;7.30;99.90
20698;DHT22;10508;50.956;4.640;2023-01-30T07:06:27;7.30;99.90
20698;DHT22;10508;50.956;4.640;2023-01-30T07:08:53;7.30;99.90
20698;DHT22;10508;50.956;4.640;2023-01-30T07:11:20;7.20;99.90
20698;DHT22;10508;50.956;4.640;2023-01-30T07:13:46;7.30;99.90
20698;DHT22;10508;50.956;4.640;2023-01-30T07:16:11;7.10;99.90
20698;DHT22;10508;50.956;4.640;2023-01-30T07:18:37;7.20;99.90
20698;DHT22;10508;50.956;4.640;2023-01-30T07:21:03;7.40;99.90
20698;DHT22;10508;50.956;4.640;2023-01-30T07:23:28;7.30;99.90
20698;DHT22;10508;50.956;4.640;2023-01-30T07:25:54;7.30;99.90
20698;DHT22;10508;50.956;4.640;2023-01-30T07:28:20;7.30;99.90
20698;DHT22;10508;50.956;4.640;2023-01-30T07:30:45;7.30;99.90
20698;DHT22;10508;50.956;4.640;2023-01-30T07:33:11;7.40;99.90
20698;DHT22;10508;50.956;4.640;2023-01-30T07:35:37;7.40;99.90
20698;DHT22;10508;50.956;4.640;2023-01-30T07:38:04;7.30;99.90
20698;DHT22;10508;50.956;4.640;2023-01-30T07:40:29;7.40;99.90
20698;DHT22;10508;50.956;4.640;2023-01-30T07:45:27;7.50;99.90
20698;DHT22;10508;50.956;4.640;2023-01-30T07:47:54;7.40;99.90
20698;DHT22;10508;50.956;4.640;2023-01-30T07:50:19;7.40;99.90
20698;DHT22;10508;50.956;4.640;2023-01-30T07:52:46;7.40;99.90
20698;DHT22;10508;50.956;4.640;2023-01-30T07:55:11;7.40;99.90
20698;DHT22;10508;50.956;4.640;2023-01-30T07:57:37;7.20;99.90
20698;DHT22;10508;50.956;4.640;2023-01-30T08:00:04;7.30;99.90
20698;DHT22;10508;50.956;4.640;2023-01-30T08:02:30;7.30;99.90
20698;DHT22;10508;50.956;4.640;2023-01-30T08:04:55;7.30;99.90
20698;DHT22;10508;50.956;4.640;2023-01-30T08:07:21;7.30;99.90
20698;DHT22;10508;50.956;4.640;2023-01-30T08:09:46;7.30;99.90
20698;DHT22;10508;50.956;4.640;2023-01-30T08:12:12;7.40;99.90
20698;DHT22;10508;50.956;4.640;2023-01-30T08:14:38;7.40;99.90
20698;DHT22;10508;50.956;4.640;2023-01-30T08:17:03;7.40;99.90
20698;DHT22;10508;50.956;4.640;2023-01-30T08:19:29;7.40;99.90
20698;DHT22;10508;50.956;4.640;2023-01-30T08:21:54;7.50;99.90
20698;DHT22;10508;50.956;4.640;2023-01-30T08:24:20;7.40;99.90
20698;DHT22;10508;50.956;4.640;2023-01-30T08:26:49;7.40;99.90
20698;DHT22;10508;50.956;4.640;2023-01-30T08:29:15;7.40;99.90
20698;DHT22;10508;50.956;4.640;2023-01-30T08:31:40;7.30;99.90
20698;DHT22;10508;50.956;4.640;2023-01-30T08:34:06;7.40;99.90
20698;DHT22;10508;50.956;4.640;2023-01-30T08:36:32;7.40;99.90
20698;DHT22;10508;50.956;4.640;2023-01-30T08:38:57;7.40;99.90
20698;DHT22;10508;50.956;4.640;2023-01-30T08:41:23;7.50;99.90
20698;DHT22;10508;50.956;4.640;2023-01-30T08:43:48;7.50;99.90
20698;DHT22;10508;50.956;4.640;2023-01-30T08:46:14;7.60;99.90
20698;DHT22;10508;50.956;4.640;2023-01-30T08:48:41;7.70;99.90
20698;DHT22;10508;50.956;4.640;2023-01-30T08:51:09;7.60;99.90
20698;DHT22;10508;50.956;4.640;2023-01-30T08:53:34;7.60;99.90
20698;DHT22;10508;50.956;4.640;2023-01-30T08:56:00;7.70;99.90
20698;DHT22;10508;50.956;4.640;2023-01-30T08:58:26;7.70;99.90
20698;DHT22;10508;50.956;4.640;2023-01-30T09:00:51;7.70;99.90
20698;DHT22;10508;50.956;4.640;2023-01-30T09:03:17;7.60;99.90
20698;DHT22;10508;50.956;4.640;2023-01-30T09:05:43;7.80;99.90
20698;DHT22;10508;50.956;4.640;2023-01-30T09:08:09;7.80;99.90
20698;DHT22;10508;50.956;4.640;2023-01-30T09:10:35;7.90;99.90
20698;DHT22;10508;50.956;4.640;2023-01-30T09:13:01;7.40;99.90
20698;DHT22;10508;50.956;4.640;2023-01-30T09:15:26;8.20;99.90
20698;DHT22;10508;50.956;4.640;2023-01-30T09:17:52;8.00;99.90
20698;DHT22;10508;50.956;4.640;2023-01-30T09:20:18;8.10;99.90
20698;DHT22;10508;50.956;4.640;2023-01-30T09:22:45;8.30;99.90
20698;DHT22;10508;50.956;4.640;2023-01-30T09:25:11;8.30;99.90
20698;DHT22;10508;50.956;4.640;2023-01-30T09:27:37;8.40;99.90
20698;DHT22;10508;50.956;4.640;2023-01-30T09:30:04;8.40;99.90
20698;DHT22;10508;50.956;4.640;2023-01-30T09:32:29;8.60;99.90
20698;DHT22;10508;50.956;4.640;2023-01-30T09:34:55;8.80;99.90
20698;DHT22;10508;50.956;4.640;2023-01-30T09:37:21;9.00;99.90
20698;DHT22;10508;50.956;4.640;2023-01-30T09:39:46;9.40;99.90
20698;DHT22;10508;50.956;4.640;2023-01-30T09:53:54;11.70;99.90
20698;DHT22;10508;50.956;4.640;2023-01-30T09:56:21;12.70;99.90
20698;DHT22;10508;50.956;4.640;2023-01-30T09:58:53;13.50;98.60
20698;DHT22;10508;50.956;4.640;2023-01-30T10:04:22;14.80;95.00
20698;DHT22;10508;50.956;4.640;2023-01-30T10:07:07;15.00;94.70
20698;DHT22;10508;50.956;4.640;2023-01-30T10:10:30;15.50;93.70
20698;DHT22;10508;50.956;4.640;2023-01-30T10:12:52;15.90;93.10
20698;DHT22;10508;50.956;4.640;2023-01-30T10:15:37;15.70;92.20
20698;DHT22;10508;50.956;4.640;2023-01-30T10:21:10;14.80;93.60
20698;DHT22;10508;50.956;4.640;2023-01-30T10:23:52;15.00;93.00
20698;DHT22;10508;50.956;4.640;2023-01-30T10:26:23;15.10;91.90
20698;DHT22;10508;50.956;4.640;2023-01-30T10:29:01;15.20;92.00
20698;DHT22;10508;50.956;4.640;2023-01-30T10:31:34;15.30;92.60
20698;DHT22;10508;50.956;4.640;2023-01-30T10:34:05;15.40;91.00
20698;DHT22;10508;50.956;4.640;2023-01-30T10:36:39;15.20;92.40
20698;DHT22;10508;50.956;4.640;2023-01-30T10:39:26;14.80;91.40
20698;DHT22;10508;50.956;4.640;2023-01-30T10:42:13;13.50;92.90
20698;DHT22;10508;50.956;4.640;2023-01-30T10:44:40;13.10;94.90
20698;DHT22;10508;50.956;4.640;2023-01-30T10:49:56;12.50;95.10
20698;DHT22;10508;50.956;4.640;2023-01-30T10:52:49;12.10;95.50
20698;DHT22;10508;50.956;4.640;2023-01-30T10:55:34;11.60;96.70
20698;DHT22;10508;50.956;4.640;2023-01-30T11:00:48;10.80;98.30
20698;DHT22;10508;50.956;4.640;2023-01-30T11:06:07;10.60;98.70
20698;DHT22;10508;50.956;4.640;2023-01-30T11:08:36;10.30;98.80
20698;DHT22;10508;50.956;4.640;2023-01-30T11:13:49;10.20;98.50
20698;DHT22;10508;50.956;4.640;2023-01-30T11:16:14;10.00;98.60
20698;DHT22;10508;50.956;4.640;2023-01-30T11:18:46;10.10;99.50
20698;DHT22;10508;50.956;4.640;2023-01-30T11:21:24;10.20;99.90
20698;DHT22;10508;50.956;4.640;2023-01-30T11:23:53;10.00;99.00
20698;DHT22;10508;50.956;4.640;2023-01-30T11:26:29;10.00;99.40
20698;DHT22;10508;50.956;4.640;2023-01-30T11:28:57;9.90;99.20
20698;DHT22;10508;50.956;4.640;2023-01-30T11:31:28;9.90;99.90
20698;DHT22;10508;50.956;4.640;2023-01-30T11:34:09;9.90;99.90
20698;DHT22;10508;50.956;4.640;2023-01-30T11:36:36;9.90;99.90
20698;DHT22;10508;50.956;4.640;2023-01-30T11:41:41;9.70;99.90
20698;DHT22;10508;50.956;4.640;2023-01-30T11:44:08;9.60;99.90
20698;DHT22;10508;50.956;4.640;2023-01-30T11:46:38;9.60;99.90
20698;DHT22;10508;50.956;4.640;2023-01-30T11:49:14;9.60;99.90
20698;DHT22;10508;50.956;4.640;2023-01-30T11:51:43;9.60;99.90
20698;DHT22;10508;50.956;4.640;2023-01-30T11:54:17;9.60;99.90
20698;DHT22;10508;50.956;4.640;2023-01-30T11:56:55;9.60;99.90
20698;DHT22;10508;50.956;4.640;2023-01-30T12:01:52;9.60;99.90
20698;DHT22;10508;50.956;4.640;2023-01-30T12:04:27;9.60;99.90
20698;DHT22;10508;50.956;4.640;2023-01-30T12:07:13;9.50;99.90
20698;DHT22;10508;50.956;4.640;2023-01-30T12:09:40;9.60;99.90
20698;DHT22;10508;50.956;4.640;2023-01-30T12:12:36;9.50;99.90
20698;DHT22;10508;50.956;4.640;2023-01-30T12:15:24;9.50;99.90
20698;DHT22;10508;50.956;4.640;2023-01-30T12:26:41;9.50;99.50
20698;DHT22;10508;50.956;4.640;2023-01-30T12:32:13;9.50;99.90
20698;DHT22;10508;50.956;4.640;2023-01-30T12:34:40;9.50;99.80
20698;DHT22;10508;50.956;4.640;2023-01-30T12:46:13;9.30;99.70
20698;DHT22;10508;50.956;4.640;2023-01-30T12:54:04;9.40;99.60
20698;DHT22;10508;50.956;4.640;2023-01-30T12:59:43;9.30;99.90
20698;DHT22;10508;50.956;4.640;2023-01-30T13:07:53;9.30;99.90
20698;DHT22;10508;50.956;4.640;2023-01-30T13:10:47;9.30;99.90
20698;DHT22;10508;50.956;4.640;2023-01-30T13:18:42;9.50;99.90
20698;DHT22;10508;50.956;4.640;2023-01-30T13:21:15;9.60;99.90
20698;DHT22;10508;50.956;4.640;2023-01-30T13:26:33;9.70;99.90
20698;DHT22;10508;50.956;4.640;2023-01-30T13:29:04;9.80;99.90
20698;DHT22;10508;50.956;4.640;2023-01-30T13:31:36;9.90;99.90
20698;DHT22;10508;50.956;4.640;2023-01-30T13:34:23;9.80;99.90
20698;DHT22;10508;50.956;4.640;2023-01-30T13:36:54;9.90;99.70
20698;DHT22;10508;50.956;4.640;2023-01-30T13:39:50;9.90;99.90
20698;DHT22;10508;50.956;4.640;2023-01-30T13:44:53;9.90;99.90
20698;DHT22;10508;50.956;4.640;2023-01-30T13:47:34;9.80;99.90
20698;DHT22;10508;50.956;4.640;2023-01-30T13:53:15;9.90;99.80
20698;DHT22;10508;50.956;4.640;2023-01-30T14:01:13;10.10;99.60
20698;DHT22;10508;50.956;4.640;2023-01-30T14:03:39;10.10;99.50
20698;DHT22;10508;50.956;4.640;2023-01-30T14:06:09;10.10;99.70
20698;DHT22;10508;50.956;4.640;2023-01-30T14:11:33;10.00;99.90
20698;DHT22;10508;50.956;4.640;2023-01-30T14:14:03;9.90;99.20
20698;DHT22;10508;50.956;4.640;2023-01-30T14:16:46;9.90;99.50
20698;DHT22;10508;50.956;4.640;2023-01-30T14:19:37;9.80;99.50
20698;DHT22;10508;50.956;4.640;2023-01-30T14:22:20;9.80;99.30
20698;DHT22;10508;50.956;4.640;2023-01-30T14:35:45;9.50;99.80
20698;DHT22;10508;50.956;4.640;2023-01-30T14:38:18;9.50;99.90
20698;DHT22;10508;50.956;4.640;2023-01-30T14:46:06;9.40;99.80
20698;DHT22;10508;50.956;4.640;2023-01-30T14:54:08;9.30;99.90
20698;DHT22;10508;50.956;4.640;2023-01-30T15:02:02;9.30;99.90
20698;DHT22;10508;50.956;4.640;2023-01-30T15:04:33;9.20;99.90
20698;DHT22;10508;50.956;4.640;2023-01-30T15:07:10;9.10;99.90
20698;DHT22;10508;50.956;4.640;2023-01-30T15:09:37;9.00;99.90
20698;DHT22;10508;50.956;4.640;2023-01-30T15:20:27;8.80;99.90
20698;DHT22;10508;50.956;4.640;2023-01-30T15:23:14;8.80;99.90
20698;DHT22;10508;50.956;4.640;2023-01-30T15:31:19;8.80;99.90
20698;DHT22;10508;50.956;4.640;2023-01-30T15:33:48;8.80;99.90
20698;DHT22;10508;50.956;4.640;2023-01-30T15:36:21;8.80;99.90
20698;DHT22;10508;50.956;4.640;2023-01-30T15:39:05;8.80;99.90
20698;DHT22;10508;50.956;4.640;2023-01-30T15:41:37;8.80;99.90
20698;DHT22;10508;50.956;4.640;2023-01-30T15:50:11;8.80;99.90
20698;DHT22;10508;50.956;4.640;2023-01-30T15:52:44;8.80;99.90
20698;DHT22;10508;50.956;4.640;2023-01-30T15:55:31;8.80;99.90
20698;DHT22;10508;50.956;4.640;2023-01-30T15:58:02;8.80;99.90
20698;DHT22;10508;50.956;4.640;2023-01-30T16:00:30;8.80;99.90
20698;DHT22;10508;50.956;4.640;2023-01-30T16:02:57;8.80;99.90
20698;DHT22;10508;50.956;4.640;2023-01-30T16:05:26;8.80;99.90
20698;DHT22;10508;50.956;4.640;2023-01-30T16:07:54;8.70;99.90
20698;DHT22;10508;50.956;4.640;2023-01-30T16:10:24;8.80;99.90
20698;DHT22;10508;50.956;4.640;2023-01-30T16:12:51;8.70;99.90
20698;DHT22;10508;50.956;4.640;2023-01-30T16:15:44;8.70;99.90
20698;DHT22;10508;50.956;4.640;2023-01-30T16:20:59;8.70;99.90
20698;DHT22;10508;50.956;4.640;2023-01-30T16:23:33;8.70;99.90
20698;DHT22;10508;50.956;4.640;2023-01-30T16:26:00;8.60;99.90
20698;DHT22;10508;50.956;4.640;2023-01-30T16:28:27;8.60;99.90
20698;DHT22;10508;50.956;4.640;2023-01-30T16:31:02;8.60;99.90
20698;DHT22;10508;50.956;4.640;2023-01-30T16:33:30;8.60;99.90
20698;DHT22;10508;50.956;4.640;2023-01-30T16:36:01;8.60;99.90
20698;DHT22;10508;50.956;4.640;2023-01-30T16:38:41;8.50;99.90
20698;DHT22;10508;50.956;4.640;2023-01-30T16:41:36;8.60;99.90
20698;DHT22;10508;50.956;4.640;2023-01-30T16:44:22;8.50;99.90
20698;DHT22;10508;50.956;4.640;2023-01-30T16:51:46;8.50;99.90
20698;DHT22;10508;50.956;4.640;2023-01-30T16:54:22;8.50;99.90
20698;DHT22;10508;50.956;4.640;2023-01-30T16:56:53;8.50;99.90
20698;DHT22;10508;50.956;4.640;2023-01-30T16:59:26;8.50;99.90
20698;DHT22;10508;50.956;4.640;2023-01-30T17:01:53;8.40;99.90
20698;DHT22;10508;50.956;4.640;2023-01-30T17:04:22;8.50;99.90
20698;DHT22;10508;50.956;4.640;2023-01-30T17:07:02;8.50;99.90
20698;DHT22;10508;50.956;4.640;2023-01-30T17:09:47;8.50;99.90
20698;DHT22;10508;50.956;4.640;2023-01-30T17:12:35;8.50;99.90
20698;DHT22;10508;50.956;4.640;2023-01-30T17:17:37;8.40;99.90
20698;DHT22;10508;50.956;4.640;2023-01-30T17:20:03;8.40;99.90
20698;DHT22;10508;50.956;4.640;2023-01-30T17:22:29;8.40;99.90
20698;DHT22;10508;50.956;4.640;2023-01-30T17:25:00;8.40;99.90
20698;DHT22;10508;50.956;4.640;2023-01-30T17:27:27;8.30;99.90
20698;DHT22;10508;50.956;4.640;2023-01-30T17:29:54;8.30;99.90
20698;DHT22;10508;50.956;4.640;2023-01-30T17:32:19;8.30;99.90
20698;DHT22;10508;50.956;4.640;2023-01-30T17:34:46;8.30;99.90
20698;DHT22;10508;50.956;4.640;2023-01-30T17:37:17;8.30;99.90
20698;DHT22;10508;50.956;4.640;2023-01-30T17:39:44;8.20;99.90
20698;DHT22;10508;50.956;4.640;2023-01-30T17:42:14;8.20;99.90
20698;DHT22;10508;50.956;4.640;2023-01-30T17:44:42;8.20;99.90
20698;DHT22;10508;50.956;4.640;2023-01-30T17:47:11;8.20;99.90
20698;DHT22;10508;50.956;4.640;2023-01-30T17:49:37;8.20;99.90
20698;DHT22;10508;50.956;4.640;2023-01-30T17:52:03;8.20;99.90
20698;DHT22;10508;50.956;4.640;2023-01-30T17:54:28;8.10;99.90
20698;DHT22;10508;50.956;4.640;2023-01-30T17:57:02;8.10;99.90
20698;DHT22;10508;50.956;4.640;2023-01-30T17:59:28;8.10;99.90
20698;DHT22;10508;50.956;4.640;2023-01-30T18:01:55;8.00;99.90
20698;DHT22;10508;50.956;4.640;2023-01-30T18:04:21;8.00;99.90
20698;DHT22;10508;50.956;4.640;2023-01-30T18:06:49;8.00;99.90
20698;DHT22;10508;50.956;4.640;2023-01-30T18:09:21;8.00;99.90
20698;DHT22;10508;50.956;4.640;2023-01-30T18:11:48;8.00;99.90
20698;DHT22;10508;50.956;4.640;2023-01-30T18:14:14;8.00;99.90
20698;DHT22;10508;50.956;4.640;2023-01-30T18:16:40;8.00;99.90
20698;DHT22;10508;50.956;4.640;2023-01-30T18:19:08;7.90;99.90
20698;DHT22;10508;50.956;4.640;2023-01-30T18:21:36;7.90;99.90
20698;DHT22;10508;50.956;4.640;2023-01-30T18:24:03;7.90;99.90
20698;DHT22;10508;50.956;4.640;2023-01-30T18:26:29;7.90;99.90
20698;DHT22;10508;50.956;4.640;2023-01-30T18:28:55;7.90;99.90
20698;DHT22;10508;50.956;4.640;2023-01-30T18:31:21;7.80;99.90
20698;DHT22;10508;50.956;4.640;2023-01-30T18:33:50;7.70;99.90
20698;DHT22;10508;50.956;4.640;2023-01-30T18:36:35;7.70;99.90
20698;DHT22;10508;50.956;4.640;2023-01-30T18:39:02;7.70;99.90
20698;DHT22;10508;50.956;4.640;2023-01-30T18:41:29;7.70;99.90
20698;DHT22;10508;50.956;4.640;2023-01-30T18:43:59;7.60;99.90
20698;DHT22;10508;50.956;4.640;2023-01-30T18:46:26;7.60;99.90
20698;DHT22;10508;50.956;4.640;2023-01-30T18:48:53;7.50;99.90
20698;DHT22;10508;50.956;4.640;2023-01-30T18:51:21;7.50;99.90
20698;DHT22;10508;50.956;4.640;2023-01-30T18:53:48;7.40;99.90
20698;DHT22;10508;50.956;4.640;2023-01-30T18:56:16;7.40;99.90
20698;DHT22;10508;50.956;4.640;2023-01-30T18:58:42;7.20;99.90
20698;DHT22;10508;50.956;4.640;2023-01-30T19:01:20;7.20;99.90